Time;durP1;ratioP1;P1;durP2;ratioP2;P2;SDS_P1;SDS_P2;PMS_P1;PMS_P2;Temp;Humidity;BMP_temperature;BMP_pressure;BME280_temperature;BME280_humidity;BME280_pressure;Samples;Min_cycle;Max_cycle;Signal;HPM_P1;HPM_P2
2021/10/09 00:01:02;;;;;;;9.23;2.00;;;27.50;35.90;;;;;;5088625;28;20079;-66
2021/10/09 00:03:28;;;;;;;13.13;2.72;;;27.20;42.60;;;;;;5088223;28;20545;-65
2021/10/09 00:05:54;;;;;;;5.25;1.77;;;27.40;38.70;;;;;;5088217;28;20522;-67
2021/10/09 00:08:21;;;;;;;14.13;2.75;;;27.30;39.40;;;;;;5088053;28;20476;-71
2021/10/09 00:10:47;;;;;;;7.65;2.03;;;27.30;39.30;;;;;;5088135;28;20114;-68
2021/10/09 00:13:14;;;;;;;4.55;1.73;;;27.10;39.20;;;;;;5087496;28;20097;-70
2021/10/09 00:15:41;;;;;;;5.70;1.70;;;27.10;38.80;;;;;;5088391;28;20137;-67
2021/10/09 00:18:08;;;;;;;6.38;1.90;;;27.10;39.30;;;;;;5089003;28;20073;-66
2021/10/09 00:20:35;;;;;;;4.65;1.58;;;27.10;38.70;;;;;;5087800;28;20076;-66
2021/10/09 00:23:01;;;;;;;9.73;1.90;;;27.20;39.10;;;;;;5088365;28;20073;-64
2021/10/09 00:25:28;;;;;;;7.28;1.95;;;27.30;39.00;;;;;;5088747;28;20441;-63
2021/10/09 00:27:54;;;;;;;11.07;2.13;;;27.30;38.30;;;;;;5086747;28;20077;-64
2021/10/09 00:30:21;;;;;;;8.68;1.90;;;27.40;76.30;;;;;;5088055;28;20087;-64
2021/10/09 00:32:47;;;;;;;7.07;2.25;;;27.30;54.60;;;;;;5087961;28;20496;-68
2021/10/09 00:35:13;;;;;;;12.15;2.00;;;27.30;38.60;;;;;;5087619;28;20171;-66
2021/10/09 00:37:40;;;;;;;3.53;1.60;;;27.20;38.50;;;;;;5072931;28;20113;-65
2021/10/09 00:40:07;;;;;;;8.27;1.50;;;27.20;38.00;;;;;;5091131;28;20138;-66
2021/10/09 00:42:33;;;;;;;4.63;1.33;;;27.20;38.10;;;;;;5090863;28;20449;-65
2021/10/09 00:45:00;;;;;;;7.38;1.73;;;27.10;38.50;;;;;;5090483;28;20068;-63
2021/10/09 00:47:26;;;;;;;7.05;1.77;;;27.00;38.80;;;;;;5092832;28;20069;-66
2021/10/09 00:49:53;;;;;;;9.15;1.70;;;26.90;39.00;;;;;;5090357;28;20077;-66
2021/10/09 00:52:24;;;;;;;10.43;1.67;;;26.90;39.50;;;;;;5091760;28;20077;-65
2021/10/09 00:54:51;;;;;;;3.63;1.50;;;26.80;39.70;;;;;;5074930;28;20072;-63
2021/10/09 00:57:22;;;;;;;4.30;2.00;;;26.60;40.00;;;;;;5091987;28;20156;-67
2021/10/09 00:59:50;;;;;;;4.55;1.65;;;26.50;40.30;;;;;;5090963;28;20502;-63
2021/10/09 01:02:18;;;;;;;8.90;1.70;;;26.40;40.80;;;;;;5091922;28;20480;-65
2021/10/09 01:04:47;;;;;;;3.63;1.63;;;26.40;40.40;;;;;;5091148;28;20069;-64
2021/10/09 01:07:14;;;;;;;6.53;2.10;;;26.30;40.70;;;;;;5090878;28;20116;-65
2021/10/09 01:09:43;;;;;;;6.88;1.90;;;26.10;40.90;;;;;;5090880;28;20163;-64
2021/10/09 01:12:10;;;;;;;8.38;1.90;;;26.10;40.90;;;;;;5091790;28;20073;-66
2021/10/09 01:14:36;;;;;;;13.00;2.75;;;26.00;41.20;;;;;;5091316;28;20076;-68
2021/10/09 01:17:02;;;;;;;8.07;2.75;;;26.00;41.40;;;;;;5090946;28;20122;-67
2021/10/09 01:19:29;;;;;;;9.00;2.00;;;25.90;41.50;;;;;;5090672;28;20080;-68
2021/10/09 01:21:55;;;;;;;15.15;2.78;;;25.70;41.90;;;;;;5074282;28;20069;-66
2021/10/09 01:24:22;;;;;;;9.13;2.00;;;25.70;41.00;;;;;;5091585;28;20084;-69
2021/10/09 01:26:48;;;;;;;15.48;1.98;;;25.60;40.90;;;;;;5092042;28;20133;-68
2021/10/09 01:29:16;;;;;;;9.30;2.30;;;25.50;41.20;;;;;;5090622;28;20080;-66
2021/10/09 01:31:42;;;;;;;12.52;3.13;;;25.40;41.40;;;;;;5092132;28;20083;-67
2021/10/09 01:34:09;;;;;;;11.82;2.00;;;25.40;41.60;;;;;;5090422;28;20095;-66
2021/10/09 01:36:37;;;;;;;16.10;5.47;;;25.40;41.00;;;;;;5090704;28;20077;-65
2021/10/09 01:39:06;;;;;;;23.98;3.00;;;25.40;41.20;;;;;;5100241;28;20191;-65
2021/10/09 01:41:47;;;;;;;16.52;2.45;;;25.40;41.00;;;;;;5088135;28;20199;-66
2021/10/09 01:44:15;;;;;;;15.55;2.83;;;25.30;40.50;;;;;;5074405;28;20072;-65
2021/10/09 01:46:42;;;;;;;12.77;2.97;;;25.30;40.40;;;;;;5089984;28;20534;-63
2021/10/09 01:49:09;;;;;;;12.02;2.60;;;25.40;40.30;;;;;;5089859;28;20080;-65
2021/10/09 01:51:35;;;;;;;10.02;2.67;;;25.30;40.50;;;;;;5074098;28;20423;-62
2021/10/09 01:54:02;;;;;;;12.02;2.42;;;25.30;40.40;;;;;;5090167;28;20118;-64
2021/10/09 01:56:29;;;;;;;9.45;2.00;;;25.30;40.80;;;;;;5090024;28;20553;-63
2021/10/09 01:58:55;;;;;;;10.95;2.45;;;25.20;41.20;;;;;;5090349;28;20221;-64
2021/10/09 02:01:21;;;;;;;13.82;2.10;;;25.10;40.90;;;;;;5089360;28;20581;-65
2021/10/09 02:03:49;;;;;;;33.28;2.72;;;25.10;40.50;;;;;;5089999;28;20085;-63
2021/10/09 02:06:16;;;;;;;14.75;2.30;;;25.10;40.30;;;;;;5089944;28;20549;-66
2021/10/09 02:08:44;;;;;;;10.77;2.53;;;25.00;40.40;;;;;;5088127;28;20518;-65
2021/10/09 02:11:15;;;;;;;8.13;1.85;;;25.00;40.50;;;;;;5099266;28;20492;-65
2021/10/09 02:27:00;;;;;;;7.30;2.70;;;24.90;39.90;;;;;;5089628;28;21376;-65
2021/10/09 02:29:27;;;;;;;11.10;2.55;;;24.90;39.90;;;;;;5089435;28;20539;-66
2021/10/09 02:31:56;;;;;;;10.32;2.20;;;24.90;39.90;;;;;;5089157;28;20084;-64
2021/10/09 02:34:23;;;;;;;14.60;2.80;;;24.80;39.80;;;;;;5089206;28;20412;-64
2021/10/09 02:36:50;;;;;;;10.88;2.35;;;24.80;40.00;;;;;;5089231;28;20526;-65
2021/10/09 02:39:16;;;;;;;8.77;2.63;;;24.80;40.70;;;;;;5089110;28;20632;-65
2021/10/09 02:41:43;;;;;;;7.03;2.58;;;24.80;40.40;;;;;;5090348;28;20155;-64
2021/10/09 02:44:11;;;;;;;6.78;2.33;;;24.80;40.30;;;;;;5087898;28;20084;-65
2021/10/09 02:46:37;;;;;;;6.97;2.72;;;24.70;40.50;;;;;;5093624;28;20089;-65
2021/10/09 02:49:04;;;;;;;10.18;2.45;;;24.70;40.70;;;;;;5091727;28;20072;-66
2021/10/09 02:51:31;;;;;;;7.15;2.45;;;24.70;41.00;;;;;;5089547;28;20077;-66
2021/10/09 02:53:57;;;;;;;5.97;2.20;;;24.70;41.00;;;;;;5089387;28;20133;-64
2021/10/09 02:56:23;;;;;;;18.77;2.45;;;24.60;40.90;;;;;;5089016;28;20081;-63
2021/10/09 02:58:50;;;;;;;13.82;2.33;;;24.60;41.30;;;;;;5089902;28;20534;-64
2021/10/09 03:01:16;;;;;;;10.93;1.75;;;24.60;41.60;;;;;;5088810;28;20663;-64
2021/10/09 03:03:42;;;;;;;16.60;2.38;;;24.60;41.60;;;;;;5093474;28;20166;-64
2021/10/09 03:06:09;;;;;;;12.05;1.98;;;24.60;42.00;;;;;;5095137;28;20181;-63
2021/10/09 03:08:35;;;;;;;11.70;2.28;;;24.50;42.50;;;;;;5086470;28;20076;-64
2021/10/09 03:11:02;;;;;;;8.77;1.92;;;24.50;42.60;;;;;;5088676;28;20125;-65
2021/10/09 03:13:28;;;;;;;10.82;2.20;;;24.50;42.90;;;;;;5087183;28;20551;-66
2021/10/09 03:15:56;;;;;;;15.57;2.40;;;24.40;43.10;;;;;;5086721;28;20075;-65
2021/10/09 03:18:23;;;;;;;7.13;2.00;;;24.40;43.40;;;;;;5088276;28;20096;-66
2021/10/09 03:20:49;;;;;;;15.60;2.47;;;24.40;43.30;;;;;;5087262;28;20099;-66
2021/10/09 03:23:16;;;;;;;16.90;2.55;;;24.40;43.20;;;;;;5087949;28;20076;-65
2021/10/09 03:25:42;;;;;;;14.88;3.58;;;24.40;43.30;;;;;;5088326;28;20084;-64
2021/10/09 03:28:08;;;;;;;9.57;3.13;;;24.30;43.00;;;;;;5088435;28;20438;-65
2021/10/09 03:30:35;;;;;;;7.80;2.83;;;24.30;43.00;;;;;;5088683;28;20097;-64
2021/10/09 03:33:01;;;;;;;9.13;2.40;;;24.30;42.80;;;;;;5089370;28;20080;-64
2021/10/09 03:35:28;;;;;;;13.93;3.10;;;24.30;42.60;;;;;;5089080;28;20098;-64
2021/10/09 03:37:54;;;;;;;7.95;1.85;;;24.30;42.70;;;;;;5088288;28;20108;-65
2021/10/09 03:40:22;;;;;;;11.73;2.58;;;24.30;42.40;;;;;;5089962;28;20065;-65
2021/10/09 03:42:53;;;;;;;16.38;2.85;;;24.30;42.50;;;;;;5088133;28;20218;-63
2021/10/09 03:45:31;;;;;;;13.30;2.33;;;24.30;42.20;;;;;;5088130;28;20182;-65
2021/10/09 03:53:04;;;;;;;8.25;1.50;;;24.30;42.90;;;;;;5089248;28;20175;-66
2021/10/09 03:55:31;;;;;;;7.32;1.50;;;24.30;43.00;;;;;;5086596;28;20072;-66
2021/10/09 03:57:58;;;;;;;8.48;2.22;;;24.20;43.20;;;;;;5089343;28;20434;-68
2021/10/09 04:00:24;;;;;;;10.85;2.00;;;24.20;43.30;;;;;;5071020;28;20069;-65
2021/10/09 04:02:50;;;;;;;7.55;1.90;;;24.10;43.40;;;;;;5087836;28;20167;-65
2021/10/09 04:05:17;;;;;;;5.93;2.08;;;24.10;43.50;;;;;;5088752;28;20573;-66
2021/10/09 04:07:44;;;;;;;11.70;2.22;;;24.10;43.80;;;;;;5086787;28;20084;-66
2021/10/09 04:10:10;;;;;;;6.30;1.98;;;24.10;44.10;;;;;;5087741;28;20107;-67
2021/10/09 04:12:37;;;;;;;14.77;2.30;;;24.00;44.20;;;;;;5089946;28;20092;-66
2021/10/09 04:15:04;;;;;;;4.55;2.20;;;23.90;44.40;;;;;;5092734;28;20073;-68
2021/10/09 04:17:31;;;;;;;6.68;1.88;;;23.90;44.50;;;;;;5093514;28;20530;-68
2021/10/09 04:19:57;;;;;;;9.20;2.15;;;23.90;44.50;;;;;;5093664;28;20083;-65
2021/10/09 04:22:24;;;;;;;6.35;2.10;;;23.90;44.50;;;;;;5092655;28;20064;-65
2021/10/09 04:24:50;;;;;;;14.73;2.65;;;23.80;44.60;;;;;;5097096;28;20069;-66
2021/10/09 04:27:16;;;;;;;10.70;3.00;;;23.80;44.70;;;;;;5091987;28;20080;-64
2021/10/09 04:29:43;;;;;;;13.77;3.38;;;23.70;44.70;;;;;;5093395;28;20079;-64
2021/10/09 04:32:09;;;;;;;16.45;3.85;;;23.70;44.90;;;;;;5092956;28;20098;-65
2021/10/09 04:34:35;;;;;;;10.50;3.33;;;23.60;45.00;;;;;;5091894;28;20450;-64
2021/10/09 04:37:02;;;;;;;14.93;3.20;;;23.60;45.10;;;;;;5092822;28;20524;-64
2021/10/09 04:39:28;;;;;;;9.95;2.88;;;23.60;45.20;;;;;;5092386;28;20575;-64
2021/10/09 04:41:55;;;;;;;9.52;2.40;;;23.50;45.40;;;;;;5093944;28;20434;-66
2021/10/09 04:44:22;;;;;;;7.40;2.38;;;23.50;45.60;;;;;;5093816;28;20474;-67
2021/10/09 04:46:49;;;;;;;7.03;2.50;;;23.40;45.70;;;;;;5091902;28;20084;-64
2021/10/09 04:49:15;;;;;;;7.47;2.50;;;23.40;45.90;;;;;;5093578;28;20151;-67
2021/10/09 04:51:42;;;;;;;5.45;2.38;;;23.40;46.20;;;;;;5092686;28;20091;-64
2021/10/09 04:54:08;;;;;;;9.75;2.38;;;23.40;46.30;;;;;;5092732;28;20093;-62
2021/10/09 04:56:34;;;;;;;3.22;1.90;;;23.40;46.20;;;;;;5092455;28;20076;-64
2021/10/09 04:59:01;;;;;;;5.13;2.10;;;23.30;47.00;;;;;;5092365;28;20073;-63
2021/10/09 05:01:27;;;;;;;8.55;2.30;;;23.20;46.40;;;;;;5094204;28;20061;-66
2021/10/09 05:03:53;;;;;;;4.93;2.90;;;23.20;46.40;;;;;;5094297;28;20433;-64
2021/10/09 05:06:20;;;;;;;6.75;3.13;;;23.20;46.30;;;;;;5092420;28;20072;-66
2021/10/09 05:08:46;;;;;;;8.32;3.50;;;23.20;45.90;;;;;;5093243;28;20077;-63
2021/10/09 05:11:14;;;;;;;10.80;4.38;;;23.20;45.80;;;;;;5093327;28;20079;-64
2021/10/09 05:13:40;;;;;;;11.45;4.50;;;23.10;45.50;;;;;;5094091;28;20503;-64
2021/10/09 05:16:06;;;;;;;13.40;4.00;;;23.20;44.70;;;;;;5091567;28;20167;-63
2021/10/09 05:18:33;;;;;;;7.45;2.30;;;23.20;44.60;;;;;;5091381;28;20499;-62
2021/10/09 05:20:59;;;;;;;5.93;2.72;;;23.20;44.80;;;;;;5091480;28;20111;-64
2021/10/09 05:23:27;;;;;;;7.03;1.90;;;23.20;45.00;;;;;;5090746;28;20081;-65
2021/10/09 05:25:53;;;;;;;8.45;3.30;;;23.10;45.00;;;;;;5090672;28;20082;-63
2021/10/09 05:28:27;;;;;;;7.45;4.55;;;23.10;45.50;;;;;;5091177;28;20562;-64
2021/10/09 05:30:56;;;;;;;10.38;5.60;;;23.10;45.40;;;;;;5091326;28;20118;-63
2021/10/09 05:33:36;;;;;;;5.70;3.17;;;23.00;45.40;;;;;;5089732;28;20183;-65
2021/10/09 05:36:03;;;;;;;5.40;1.92;;;23.10;45.00;;;;;;5091876;28;20060;-63
2021/10/09 05:38:30;;;;;;;4.30;2.08;;;23.10;44.30;;;;;;5091804;28;20123;-66
2021/10/09 05:40:57;;;;;;;6.90;1.50;;;23.10;44.30;;;;;;5091184;28;20076;-66
2021/10/09 05:43:24;;;;;;;7.97;2.00;;;23.10;43.20;;;;;;5090838;28;20122;-66
2021/10/09 05:45:51;;;;;;;8.15;2.30;;;23.20;42.90;;;;;;5090305;28;20093;-62
2021/10/09 05:48:17;;;;;;;7.10;1.70;;;23.20;43.10;;;;;;5092231;28;20465;-64
2021/10/09 05:55:51;;;;;;;9.85;1.98;;;23.20;42.90;;;;;;5091938;28;20554;-62
2021/10/09 05:58:23;;;;;;;7.45;1.70;;;23.20;42.70;;;;;;5088966;28;20577;-64
2021/10/09 07:00:08;;;;;;;2.75;1.10;;;22.90;41.60;;;;;;5089567;28;20075;-65
2021/10/09 07:02:39;;;;;;;2.25;0.80;;;22.80;41.40;;;;;;5086796;28;20105;-63
2021/10/09 07:05:07;;;;;;;5.32;1.30;;;22.80;41.50;;;;;;5091604;28;20076;-62
2021/10/09 07:07:39;;;;;;;2.85;1.00;;;22.80;41.80;;;;;;5087369;28;20095;-64
2021/10/09 07:10:07;;;;;;;4.47;1.35;;;22.80;41.80;;;;;;5085991;28;20492;-62
2021/10/09 07:12:33;;;;;;;2.70;1.02;;;22.70;41.80;;;;;;5088682;28;20088;-64
2021/10/09 07:15:00;;;;;;;3.40;1.60;;;22.70;42.10;;;;;;5072420;28;20073;-64
2021/10/09 07:17:26;;;;;;;2.40;1.50;;;22.70;42.50;;;;;;5088518;28;20096;-62
2021/10/09 07:19:52;;;;;;;3.70;1.55;;;22.70;42.70;;;;;;5070290;28;20076;-63
2021/10/09 07:22:19;;;;;;;4.78;1.70;;;22.60;42.50;;;;;;5088201;28;20077;-64
2021/10/09 07:24:45;;;;;;;4.25;1.20;;;22.60;42.30;;;;;;5086842;28;20086;-62
2021/10/09 07:27:11;;;;;;;5.88;1.00;;;22.60;42.20;;;;;;5086338;28;20073;-64
2021/10/09 07:29:38;;;;;;;3.47;1.52;;;22.60;41.80;;;;;;5088331;28;20072;-63
2021/10/09 07:32:05;;;;;;;5.90;2.10;;;22.60;41.80;;;;;;5086909;28;20080;-66
2021/10/09 07:34:31;;;;;;;1.95;0.90;;;22.60;41.50;;;;;;5088737;28;20084;-65
2021/10/09 07:36:57;;;;;;;2.47;0.80;;;22.60;41.00;;;;;;5086255;28;20069;-62
2021/10/09 07:39:25;;;;;;;2.17;1.50;;;22.60;40.60;;;;;;5086947;28;20073;-63
2021/10/09 07:41:53;;;;;;;4.40;1.50;;;22.70;40.50;;;;;;5086332;28;20071;-64
2021/10/09 07:44:21;;;;;;;7.05;1.60;;;22.60;40.30;;;;;;5071314;28;20581;-62
2021/10/09 07:46:49;;;;;;;6.88;2.33;;;22.70;40.70;;;;;;5085875;28;20096;-62
2021/10/09 07:49:15;;;;;;;8.55;2.70;;;22.70;40.70;;;;;;5087081;28;20084;-62
2021/10/09 07:51:41;;;;;;;3.08;1.60;;;22.60;40.70;;;;;;5086620;28;20083;-64
2021/10/09 07:54:08;;;;;;;6.25;1.83;;;22.50;40.50;;;;;;5086795;28;20589;-63
2021/10/09 07:56:34;;;;;;;2.38;1.50;;;22.50;40.90;;;;;;5087734;28;20137;-61
2021/10/09 07:59:01;;;;;;;5.80;2.00;;;22.50;40.80;;;;;;5086094;28;20104;-65
2021/10/09 08:01:27;;;;;;;4.00;2.30;;;22.50;40.80;;;;;;5087727;28;20069;-63
2021/10/09 08:03:54;;;;;;;6.70;2.00;;;22.50;40.60;;;;;;5088138;28;20209;-63
2021/10/09 08:06:20;;;;;;;;;;;22.50;41.00;;;;;;5088168;28;20107;-63
2021/10/09 08:08:46;;;;;;;5.75;3.30;;;22.40;40.90;;;;;;5084641;28;20071;-65
2021/10/09 08:11:13;;;;;;;7.65;5.43;;;22.40;41.00;;;;;;5087003;28;20433;-64
2021/10/09 08:13:39;;;;;;;9.68;6.40;;;22.30;41.20;;;;;;5085365;28;20096;-61
2021/10/09 08:16:06;;;;;;;10.70;7.50;;;22.30;41.00;;;;;;5085429;28;20181;-63
2021/10/09 08:18:32;;;;;;;12.90;8.68;;;22.30;41.20;;;;;;5087090;28;20065;-63
2021/10/09 08:21:08;;;;;;;16.33;9.02;;;22.30;41.20;;;;;;5087340;28;20076;-62
2021/10/09 08:23:57;;;;;;;10.10;6.20;;;22.20;41.30;;;;;;5084783;28;20230;-61
2021/10/09 08:40:24;;;;;;;5.53;1.00;;;22.00;43.20;;;;;;5030906;28;20161;-63
2021/10/09 08:42:51;;;;;;;3.97;0.90;;;21.90;43.30;;;;;;5073896;28;20077;-63
2021/10/09 08:45:17;;;;;;;2.60;0.90;;;22.00;43.60;;;;;;5084985;28;20526;-63
2021/10/09 08:47:45;;;;;;;4.22;0.90;;;21.90;43.90;;;;;;5087144;28;20538;-63
2021/10/09 08:50:13;;;;;;;5.18;1.20;;;21.90;44.10;;;;;;5087995;28;20094;-65
2021/10/09 08:53:03;;;;;;;2.13;0.98;;;21.90;44.00;;;;;;5087537;28;20141;-64
2021/10/09 08:55:30;;;;;;;8.77;1.10;;;21.80;44.00;;;;;;5086983;28;20141;-64
2021/10/09 08:58:05;;;;;;;5.00;1.00;;;21.80;44.50;;;;;;5086241;28;20084;-64
2021/10/09 09:01:11;;;;;;;4.28;0.88;;;21.80;44.50;;;;;;5090953;28;20136;-64
2021/10/09 09:04:09;;;;;;;5.38;1.08;;;21.70;44.50;;;;;;5089272;28;20526;-63
2021/10/09 09:31:10;;;;;;;1.48;0.80;;;21.50;44.50;;;;;;5091569;28;20068;-64
2021/10/09 09:36:21;;;;;;;2.83;0.90;;;21.50;44.70;;;;;;5091324;28;20076;-63
2021/10/09 09:39:05;;;;;;;3.45;1.10;;;21.40;44.80;;;;;;5090469;28;20100;-63
2021/10/09 09:41:43;;;;;;;3.33;1.25;;;21.40;44.90;;;;;;5089803;28;20125;-64
2021/10/09 09:44:12;;;;;;;4.68;1.00;;;21.30;45.10;;;;;;5090684;28;20080;-62
2021/10/09 09:46:38;;;;;;;2.95;0.80;;;21.30;45.70;;;;;;5087235;28;20085;-63
2021/10/09 09:49:06;;;;;;;5.00;0.95;;;21.30;46.80;;;;;;5088478;28;20073;-63
2021/10/09 09:51:37;;;;;;;11.85;1.33;;;21.20;46.90;;;;;;5087437;28;20072;-64
2021/10/09 09:54:04;;;;;;;3.55;1.10;;;21.10;48.50;;;;;;5057851;28;20093;-64
2021/10/09 09:56:30;;;;;;;12.40;1.35;;;21.10;49.30;;;;;;5089296;28;20550;-61
2021/10/09 09:59:01;;;;;;;1.35;0.70;;;21.00;49.60;;;;;;5090034;28;20068;-64
2021/10/09 10:01:33;;;;;;;3.67;1.20;;;21.00;49.80;;;;;;5089481;28;20069;-65
2021/10/09 10:04:01;;;;;;;4.28;1.20;;;20.90;49.80;;;;;;5089498;28;20114;-63
2021/10/09 10:06:29;;;;;;;6.60;1.80;;;20.80;50.00;;;;;;5089495;28;20221;-66
2021/10/09 10:08:57;;;;;;;7.05;1.75;;;20.70;49.90;;;;;;5092287;28;20068;-62
2021/10/09 10:11:25;;;;;;;3.45;1.90;;;20.70;50.10;;;;;;5088382;28;20091;-62
2021/10/09 10:13:53;;;;;;;3.10;1.50;;;20.60;50.20;;;;;;5090663;28;20545;-63
2021/10/09 10:16:20;;;;;;;3.20;1.38;;;20.50;49.90;;;;;;5086462;28;20097;-64
2021/10/09 10:18:46;;;;;;;2.65;1.13;;;20.50;49.80;;;;;;5090572;28;20073;-64
2021/10/09 10:21:13;;;;;;;;;;;20.50;49.80;;;;;;5088333;28;20077;-64
2021/10/09 10:23:41;;;;;;;1.83;1.20;;;20.50;50.20;;;;;;5073199;28;19957;-64
2021/10/09 10:26:19;;;;;;;5.43;1.30;;;20.40;50.60;;;;;;5091443;28;20081;-65
2021/10/09 10:28:55;;;;;;;2.03;1.20;;;20.30;50.60;;;;;;5088804;28;20438;-63
2021/10/09 10:31:22;;;;;;;2.67;1.30;;;20.30;50.90;;;;;;5089417;28;20064;-65
2021/10/09 10:33:59;;;;;;;3.00;1.40;;;20.20;50.80;;;;;;5072756;28;20449;-62
2021/10/09 10:36:45;;;;;;;2.80;1.60;;;20.20;50.50;;;;;;5089633;28;20088;-63
2021/10/09 10:39:13;;;;;;;4.40;1.30;;;20.20;50.80;;;;;;5089896;28;20104;-63
2021/10/09 10:41:57;;;;;;;5.97;2.75;;;20.10;50.80;;;;;;5088919;28;20485;-62
2021/10/09 10:45:36;;;;;;;8.75;3.00;;;20.10;50.80;;;;;;5071667;28;20073;-63
2021/10/09 10:48:00;;;;;;;4.43;1.40;;;20.00;50.70;;;;;;5082233;28;20118;-62
2021/10/09 10:53:14;;;;;;;4.38;1.17;;;20.10;50.40;;;;;;5091511;28;20570;-62
2021/10/09 10:56:09;;;;;;;4.07;1.17;;;20.10;50.20;;;;;;5089036;28;20072;-62
2021/10/09 10:58:37;;;;;;;7.65;1.10;;;20.10;50.20;;;;;;5087734;28;20065;-62
2021/10/09 11:01:24;;;;;;;3.90;1.23;;;20.10;50.00;;;;;;5088899;28;20155;-63
2021/10/09 11:03:55;;;;;;;5.63;1.38;;;20.10;50.10;;;;;;5088685;28;20526;-63
2021/10/09 11:06:24;;;;;;;7.60;2.17;;;20.20;49.60;;;;;;5071692;28;20084;-63
2021/10/09 11:08:52;;;;;;;4.32;1.50;;;20.20;49.60;;;;;;5087722;28;20079;-61
2021/10/09 11:11:34;;;;;;;2.97;1.25;;;20.20;49.50;;;;;;5086662;28;20084;-63
2021/10/09 11:14:00;;;;;;;3.85;1.20;;;20.20;49.40;;;;;;5071865;28;20115;-64
2021/10/09 11:16:31;;;;;;;3.72;1.08;;;20.10;49.40;;;;;;5087321;28;20720;-62
2021/10/09 11:18:57;;;;;;;2.92;1.33;;;20.20;49.30;;;;;;5086465;28;20068;-65
2021/10/09 11:21:23;;;;;;;4.35;1.00;;;20.10;49.30;;;;;;5085523;28;20072;-64
2021/10/09 11:23:51;;;;;;;6.75;1.38;;;20.00;49.70;;;;;;5087334;28;20453;-62
2021/10/09 11:26:18;;;;;;;2.85;1.40;;;20.00;50.10;;;;;;5089468;28;20072;-62
2021/10/09 11:28:46;;;;;;;9.70;1.83;;;20.00;50.00;;;;;;5088264;28;20074;-63
2021/10/09 11:31:25;;;;;;;6.55;2.08;;;20.00;50.00;;;;;;5088035;28;20080;-63
2021/10/09 11:33:57;;;;;;;6.13;1.45;;;20.00;50.10;;;;;;5071222;28;20084;-62
2021/10/09 11:36:24;;;;;;;5.45;1.10;;;19.90;50.40;;;;;;5088090;28;20101;-61
2021/10/09 11:39:02;;;;;;;2.05;0.95;;;19.70;50.90;;;;;;5086799;28;20108;-61
2021/10/09 11:41:29;;;;;;;3.58;1.10;;;19.70;51.10;;;;;;5086570;28;20065;-63
2021/10/09 11:44:05;;;;;;;5.97;1.20;;;19.60;51.30;;;;;;5086758;28;20069;-61
2021/10/09 11:55:22;;;;;;;2.45;1.20;;;19.70;50.10;;;;;;5088559;28;20130;-61
2021/10/09 11:57:49;;;;;;;3.70;1.27;;;19.60;50.20;;;;;;5086993;28;20076;-63
2021/10/09 12:00:28;;;;;;;3.65;1.20;;;19.70;50.20;;;;;;5069861;28;20477;-62
2021/10/09 12:02:59;;;;;;;4.05;1.10;;;19.70;50.00;;;;;;5085202;28;20576;-62
2021/10/09 12:05:32;;;;;;;2.28;1.13;;;19.70;50.10;;;;;;5089300;28;20076;-62
2021/10/09 12:08:32;;;;;;;3.35;1.20;;;19.70;49.80;;;;;;5072209;28;20083;-60
2021/10/09 12:11:21;;;;;;;4.18;0.98;;;19.70;49.00;;;;;;5086989;28;20565;-61
2021/10/09 12:13:48;;;;;;;4.82;1.15;;;19.80;48.00;;;;;;5087581;28;20138;-61
2021/10/09 12:16:15;;;;;;;5.13;1.25;;;19.70;48.10;;;;;;5088623;28;20065;-62
2021/10/09 12:18:53;;;;;;;4.78;1.25;;;19.80;47.90;;;;;;5087597;28;20073;-62
2021/10/09 12:21:22;;;;;;;3.47;1.40;;;19.80;47.60;;;;;;5086678;28;20133;-62
2021/10/09 12:23:48;;;;;;;6.90;1.63;;;19.80;47.90;;;;;;5071187;28;20211;-61
2021/10/09 12:26:16;;;;;;;8.23;1.83;;;19.70;48.20;;;;;;5086656;28;20526;-63
2021/10/09 12:29:05;;;;;;;5.68;1.17;;;19.70;48.10;;;;;;5085802;28;20099;-63
2021/10/09 12:31:34;;;;;;;4.28;1.23;;;19.80;47.60;;;;;;5087073;28;20104;-61
2021/10/09 12:34:01;;;;;;;5.70;1.13;;;19.80;47.50;;;;;;5071641;28;20095;-62
2021/10/09 12:39:23;;;;;;;2.38;1.10;;;19.90;46.10;;;;;;5091385;28;20119;-62
2021/10/09 12:41:54;;;;;;;3.70;1.08;;;19.90;45.30;;;;;;5079185;28;20076;-65
2021/10/09 12:44:21;;;;;;;3.28;1.52;;;19.90;45.10;;;;;;5090709;28;20112;-60
2021/10/09 12:46:48;;;;;;;3.65;1.00;;;20.00;45.30;;;;;;5075124;28;20241;-63
2021/10/09 12:49:16;;;;;;;3.63;0.90;;;20.00;45.00;;;;;;5090352;28;20072;-61
2021/10/09 12:51:42;;;;;;;2.22;1.10;;;20.10;45.20;;;;;;5074115;28;20084;-62
2021/10/09 12:54:09;;;;;;;8.20;1.05;;;20.00;44.90;;;;;;5089743;28;20469;-62
2021/10/09 12:56:37;;;;;;;5.95;0.93;;;20.00;43.90;;;;;;5090747;28;20134;-63
2021/10/09 12:59:04;;;;;;;1.67;0.90;;;20.00;42.00;;;;;;5089728;28;20073;-63
2021/10/09 13:01:30;;;;;;;1.15;0.70;;;20.20;39.70;;;;;;5089809;28;20076;-62
2021/10/09 13:03:57;;;;;;;1.75;0.88;;;20.30;39.10;;;;;;5089832;28;20073;-61
2021/10/09 13:06:23;;;;;;;2.58;0.95;;;20.30;38.80;;;;;;5090832;28;20652;-62
2021/10/09 13:08:49;;;;;;;;;;;20.40;38.50;;;;;;5092699;28;20088;-62
2021/10/09 13:11:21;;;;;;;3.30;0.82;;;20.50;38.30;;;;;;5091889;28;20003;-63
2021/10/09 13:13:48;;;;;;;2.33;0.93;;;20.50;38.10;;;;;;5090742;28;20085;-63
2021/10/09 13:16:14;;;;;;;2.47;1.25;;;20.60;38.40;;;;;;5090207;28;20072;-63
2021/10/09 13:18:41;;;;;;;6.20;1.00;;;20.60;39.00;;;;;;5088981;28;20072;-62
2021/10/09 13:21:07;;;;;;;;;;;20.50;39.40;;;;;;5091363;28;20079;-62
2021/10/09 13:23:33;;;;;;;3.58;0.88;;;20.50;40.00;;;;;;5090413;28;19960;-62
2021/10/09 13:26:00;;;;;;;1.83;0.80;;;20.50;40.50;;;;;;5092464;28;20068;-62
2021/10/09 13:28:27;;;;;;;2.30;0.85;;;20.40;41.40;;;;;;5089438;28;20163;-65
2021/10/09 13:30:54;;;;;;;4.43;1.15;;;20.40;42.10;;;;;;5072555;28;20081;-62
2021/10/09 13:33:20;;;;;;;1.52;0.88;;;20.40;42.90;;;;;;5091558;28;20998;-65
2021/10/09 13:35:47;;;;;;;2.55;0.88;;;20.40;43.90;;;;;;5089605;28;20164;-62
2021/10/09 13:38:14;;;;;;;5.00;1.08;;;20.40;44.60;;;;;;5090816;28;20146;-63
2021/10/09 13:40:42;;;;;;;3.33;0.90;;;20.30;45.20;;;;;;5089032;28;20141;-63
2021/10/09 13:43:12;;;;;;;4.50;1.00;;;20.20;45.60;;;;;;5089604;28;20084;-66
2021/10/09 13:45:46;;;;;;;6.22;1.33;;;20.10;46.90;;;;;;5088109;28;20592;-65
2021/10/09 13:48:13;;;;;;;4.80;1.00;;;19.90;48.00;;;;;;5088232;28;20085;-62
2021/10/09 13:50:51;;;;;;;5.70;1.20;;;19.80;49.00;;;;;;5073857;28;20134;-63
2021/10/09 13:53:17;;;;;;;3.65;1.05;;;19.70;49.00;;;;;;5087919;28;20134;-61
2021/10/09 13:55:44;;;;;;;4.30;1.10;;;19.50;49.30;;;;;;5089822;28;20097;-62
2021/10/09 13:58:11;;;;;;;5.05;1.13;;;19.60;49.40;;;;;;5090630;28;20072;-62
2021/10/09 14:00:39;;;;;;;2.35;1.05;;;19.60;49.20;;;;;;5087816;28;20120;-62
2021/10/09 14:03:06;;;;;;;1.88;0.90;;;19.70;49.20;;;;;;5090058;28;20075;-64
2021/10/09 14:05:33;;;;;;;5.50;1.60;;;19.70;49.00;;;;;;5091201;28;20168;-64
2021/10/09 14:08:00;;;;;;;3.13;1.17;;;19.70;48.80;;;;;;5057202;28;20096;-64
2021/10/09 14:10:26;;;;;;;4.53;1.08;;;19.70;49.30;;;;;;5090255;28;20107;-62
2021/10/09 14:12:53;;;;;;;12.48;2.22;;;19.80;49.60;;;;;;5091044;28;20077;-63
2021/10/09 14:15:19;;;;;;;3.15;1.10;;;19.80;50.20;;;;;;5089772;28;20073;-63
2021/10/09 14:17:46;;;;;;;5.95;1.55;;;19.80;50.60;;;;;;5090812;28;20127;-63
2021/10/09 14:20:13;;;;;;;13.75;1.88;;;19.80;51.00;;;;;;5089856;28;20098;-62
2021/10/09 14:22:40;;;;;;;8.35;1.60;;;19.70;51.60;;;;;;5089623;28;20206;-63
2021/10/09 14:25:09;;;;;;;12.15;1.77;;;19.70;52.20;;;;;;5093140;28;20087;-64
2021/10/09 14:27:35;;;;;;;10.10;1.98;;;19.70;52.80;;;;;;5093646;28;20065;-65
2021/10/09 14:30:04;;;;;;;12.82;2.03;;;19.80;53.30;;;;;;5089378;28;20526;-64
2021/10/09 14:32:31;;;;;;;8.80;1.92;;;19.80;54.10;;;;;;5089489;28;20183;-64
2021/10/09 14:34:57;;;;;;;10.20;2.35;;;19.80;55.20;;;;;;5090557;28;20084;-66
2021/10/09 14:37:23;;;;;;;;;;;19.80;56.90;;;;;;5089455;28;20097;-63
2021/10/09 14:39:50;;;;;;;10.77;1.80;;;19.90;57.30;;;;;;5090212;28;20610;-63
2021/10/09 14:42:17;;;;;;;5.60;1.50;;;20.00;57.40;;;;;;5091746;28;20069;-63
2021/10/09 14:44:44;;;;;;;11.57;2.30;;;20.00;57.40;;;;;;5089327;28;20075;-65
2021/10/09 14:49:56;;;;;;;7.97;2.20;;;20.20;57.00;;;;;;5090816;28;20072;-63
2021/10/09 14:52:43;;;;;;;10.25;2.20;;;20.20;57.10;;;;;;5087948;28;20559;-65
2021/10/09 15:17:39;;;;;;;16.65;2.50;;;20.70;55.00;;;;;;5089588;28;20071;-62
2021/10/09 15:20:06;;;;;;;12.95;2.97;;;20.80;55.00;;;;;;5088477;28;20427;-64
2021/10/09 15:22:33;;;;;;;16.70;3.13;;;20.90;54.80;;;;;;5088559;28;20073;-63
2021/10/09 15:25:00;;;;;;;15.80;3.55;;;20.90;54.50;;;;;;5088400;28;20088;-65
2021/10/09 15:27:28;;;;;;;7.75;2.40;;;20.90;53.90;;;;;;5073154;28;20441;-63
2021/10/09 15:29:56;;;;;;;12.75;2.10;;;21.10;52.30;;;;;;5088284;28;20168;-64
2021/10/09 15:32:23;;;;;;;10.23;2.00;;;21.20;52.70;;;;;;5088261;28;20117;-61
2021/10/09 15:34:50;;;;;;;9.32;2.00;;;21.40;52.70;;;;;;5089227;28;20167;-62
2021/10/09 15:37:18;;;;;;;11.75;2.55;;;21.60;52.90;;;;;;5089585;28;20240;-63